sensor_id;sensor_type;location;lat;lon;timestamp;pressure;altitude;pressure_sealevel;temperature;humidity
19736;BME280;32064;49.310;8.646;2022-10-16T00:00:16;100324.00;;;19.05;100.00
19736;BME280;32064;49.310;8.646;2022-10-16T00:02:41;100328.31;;;19.06;100.00
19736;BME280;32064;49.310;8.646;2022-10-16T00:05:06;100326.81;;;19.04;100.00
19736;BME280;32064;49.310;8.646;2022-10-16T00:07:32;100327.63;;;19.04;100.00
19736;BME280;32064;49.310;8.646;2022-10-16T00:09:57;100329.66;;;19.02;100.00
19736;BME280;32064;49.310;8.646;2022-10-16T00:12:23;100329.81;;;19.01;100.00
19736;BME280;32064;49.310;8.646;2022-10-16T00:14:48;100337.66;;;19.02;100.00
19736;BME280;32064;49.310;8.646;2022-10-16T00:17:13;100336.66;;;19.03;100.00
19736;BME280;32064;49.310;8.646;2022-10-16T00:19:39;100333.78;;;19.05;100.00
19736;BME280;32064;49.310;8.646;2022-10-16T00:22:04;100340.00;;;19.05;100.00
19736;BME280;32064;49.310;8.646;2022-10-16T00:24:30;100319.63;;;19.04;100.00
19736;BME280;32064;49.310;8.646;2022-10-16T00:26:55;100330.31;;;19.04;100.00
19736;BME280;32064;49.310;8.646;2022-10-16T00:29:20;100332.81;;;19.06;100.00
19736;BME280;32064;49.310;8.646;2022-10-16T00:31:46;100308.31;;;19.02;100.00
19736;BME280;32064;49.310;8.646;2022-10-16T00:34:11;100303.13;;;19.01;100.00
19736;BME280;32064;49.310;8.646;2022-10-16T00:36:37;100304.28;;;18.98;100.00
19736;BME280;32064;49.310;8.646;2022-10-16T00:39:02;100313.66;;;19.02;100.00
19736;BME280;32064;49.310;8.646;2022-10-16T00:41:28;100324.31;;;19.02;100.00
19736;BME280;32064;49.310;8.646;2022-10-16T00:43:56;100313.66;;;19.02;100.00
19736;BME280;32064;49.310;8.646;2022-10-16T00:46:41;100318.78;;;18.96;100.00
19736;BME280;32064;49.310;8.646;2022-10-16T00:49:13;100330.13;;;18.98;100.00
19736;BME280;32064;49.310;8.646;2022-10-16T00:51:51;100342.78;;;18.96;100.00
19736;BME280;32064;49.310;8.646;2022-10-16T00:54:23;100343.13;;;18.93;100.00
19736;BME280;32064;49.310;8.646;2022-10-16T00:56:50;100349.13;;;18.95;100.00
19736;BME280;32064;49.310;8.646;2022-10-16T00:59:24;100345.63;;;18.94;100.00
19736;BME280;32064;49.310;8.646;2022-10-16T01:01:51;100342.47;;;18.99;100.00
19736;BME280;32064;49.310;8.646;2022-10-16T01:04:18;100342.47;;;18.99;100.00
19736;BME280;32064;49.310;8.646;2022-10-16T01:12:41;100335.44;;;18.90;100.00
19736;BME280;32064;49.310;8.646;2022-10-16T01:15:19;100342.28;;;18.92;100.00
19736;BME280;32064;49.310;8.646;2022-10-16T01:20:40;100348.13;;;18.96;100.00
19736;BME280;32064;49.310;8.646;2022-10-16T01:28:13;100338.28;;;18.96;100.00
19736;BME280;32064;49.310;8.646;2022-10-16T01:30:42;100338.28;;;18.96;100.00
19736;BME280;32064;49.310;8.646;2022-10-16T01:35:41;100341.81;;;18.97;100.00
19736;BME280;32064;49.310;8.646;2022-10-16T01:38:19;100347.28;;;18.95;100.00
19736;BME280;32064;49.310;8.646;2022-10-16T01:40:50;100351.78;;;18.95;100.00
19736;BME280;32064;49.310;8.646;2022-10-16T01:43:23;100347.44;;;18.94;100.00
19736;BME280;32064;49.310;8.646;2022-10-16T01:45:51;100349.13;;;18.95;100.00
19736;BME280;32064;49.310;8.646;2022-10-16T01:48:18;100340.94;;;18.96;100.00
19736;BME280;32064;49.310;8.646;2022-10-16T01:50:56;100337.44;;;18.96;100.00
19736;BME280;32064;49.310;8.646;2022-10-16T01:53:22;100342.63;;;18.97;100.00
19736;BME280;32064;49.310;8.646;2022-10-16T01:55:50;100344.47;;;18.97;100.00
19736;BME280;32064;49.310;8.646;2022-10-16T01:58:17;100350.63;;;18.97;100.00
19736;BME280;32064;49.310;8.646;2022-10-16T02:00:44;100356.13;;;18.96;100.00
19736;BME280;32064;49.310;8.646;2022-10-16T02:03:13;100352.78;;;18.94;100.00
19736;BME280;32064;49.310;8.646;2022-10-16T02:05:45;100356.44;;;18.93;100.00
19736;BME280;32064;49.310;8.646;2022-10-16T02:08:11;100360.78;;;18.94;100.00
19736;BME280;32064;49.310;8.646;2022-10-16T02:10:37;100354.28;;;18.96;100.00
19736;BME280;32064;49.310;8.646;2022-10-16T02:13:10;100355.28;;;18.95;100.00
19736;BME280;32064;49.310;8.646;2022-10-16T02:15:37;100360.47;;;18.97;100.00
19736;BME280;32064;49.310;8.646;2022-10-16T02:18:04;100369.31;;;18.97;100.00
19736;BME280;32064;49.310;8.646;2022-10-16T02:20:34;100363.28;;;18.95;100.00
19736;BME280;32064;49.310;8.646;2022-10-16T02:23:02;100361.44;;;18.96;100.00
19736;BME280;32064;49.310;8.646;2022-10-16T02:25:37;100365.97;;;18.95;100.00
19736;BME280;32064;49.310;8.646;2022-10-16T02:28:16;100363.63;;;18.92;100.00
19736;BME280;32064;49.310;8.646;2022-10-16T02:30:52;100364.44;;;18.93;100.00
19736;BME280;32064;49.310;8.646;2022-10-16T02:33:21;100359.94;;;18.93;100.00
19736;BME280;32064;49.310;8.646;2022-10-16T02:35:56;100361.78;;;18.93;100.00
19736;BME280;32064;49.310;8.646;2022-10-16T02:38:32;100353.97;;;18.91;100.00
19736;BME280;32064;49.310;8.646;2022-10-16T02:41:20;100355.44;;;18.86;100.00
19736;BME280;32064;49.310;8.646;2022-10-16T02:44:21;100354.91;;;18.82;100.00
19736;BME280;32064;49.310;8.646;2022-10-16T02:46:49;100359.91;;;18.85;100.00
19736;BME280;32064;49.310;8.646;2022-10-16T02:49:32;100357.56;;;18.82;100.00
19736;BME280;32064;49.310;8.646;2022-10-16T02:52:02;100353.06;;;18.74;100.00
19736;BME280;32064;49.310;8.646;2022-10-16T02:54:48;100355.03;;;18.72;100.00
19736;BME280;32064;49.310;8.646;2022-10-16T02:57:13;100358.41;;;18.74;100.00
19736;BME280;32064;49.310;8.646;2022-10-16T02:59:39;100359.59;;;18.80;100.00
19736;BME280;32064;49.310;8.646;2022-10-16T03:02:04;100374.59;;;18.81;100.00
19736;BME280;32064;49.310;8.646;2022-10-16T03:04:29;100368.25;;;18.82;100.00
19736;BME280;32064;49.310;8.646;2022-10-16T03:06:55;100370.41;;;18.78;100.00
19736;BME280;32064;49.310;8.646;2022-10-16T03:09:20;100371.78;;;18.82;100.00
19736;BME280;32064;49.310;8.646;2022-10-16T03:11:46;100382.72;;;18.79;100.00
19736;BME280;32064;49.310;8.646;2022-10-16T03:14:11;100381.25;;;18.85;100.00
19736;BME280;32064;49.310;8.646;2022-10-16T03:16:37;100377.94;;;18.83;100.00
19736;BME280;32064;49.310;8.646;2022-10-16T03:19:02;100374.09;;;18.86;100.00
19736;BME280;32064;49.310;8.646;2022-10-16T03:21:28;100367.91;;;18.85;100.00
19736;BME280;32064;49.310;8.646;2022-10-16T03:23:53;100371.13;;;18.89;100.00
19736;BME280;32064;49.310;8.646;2022-10-16T03:26:19;100371.25;;;18.87;100.00
19736;BME280;32064;49.310;8.646;2022-10-16T03:28:44;100375.63;;;18.88;100.00
19736;BME280;32064;49.310;8.646;2022-10-16T03:31:09;100367.09;;;18.84;100.00
19736;BME280;32064;49.310;8.646;2022-10-16T03:33:35;100374.25;;;18.84;100.00
19736;BME280;32064;49.310;8.646;2022-10-16T03:36:00;100364.06;;;18.79;100.00
19736;BME280;32064;49.310;8.646;2022-10-16T03:38:26;100363.78;;;18.82;100.00
19736;BME280;32064;49.310;8.646;2022-10-16T03:40:51;100351.09;;;18.84;100.00
19736;BME280;32064;49.310;8.646;2022-10-16T03:43:16;100350.44;;;18.82;100.00
19736;BME280;32064;49.310;8.646;2022-10-16T03:45:42;100361.75;;;18.84;100.00
19736;BME280;32064;49.310;8.646;2022-10-16T03:48:07;100355.25;;;18.79;100.00
19736;BME280;32064;49.310;8.646;2022-10-16T03:50:33;100363.78;;;18.82;100.00
19736;BME280;32064;49.310;8.646;2022-10-16T03:52:58;100364.41;;;18.84;100.00
19736;BME280;32064;49.310;8.646;2022-10-16T03:55:24;100359.25;;;18.83;100.00
19736;BME280;32064;49.310;8.646;2022-10-16T03:57:49;100367.75;;;18.87;100.00
19736;BME280;32064;49.310;8.646;2022-10-16T04:00:15;100368.28;;;18.90;100.00
19736;BME280;32064;49.310;8.646;2022-10-16T04:02:40;100370.94;;;18.90;100.00
19736;BME280;32064;49.310;8.646;2022-10-16T04:05:06;100378.59;;;18.93;100.00
19736;BME280;32064;49.310;8.646;2022-10-16T04:07:32;100387.44;;;18.94;100.00
19736;BME280;32064;49.310;8.646;2022-10-16T04:09:57;100381.59;;;18.90;100.00
19736;BME280;32064;49.310;8.646;2022-10-16T04:12:24;100384.94;;;18.92;100.00
19736;BME280;32064;49.310;8.646;2022-10-16T04:14:50;100396.94;;;18.96;100.00
19736;BME280;32064;49.310;8.646;2022-10-16T04:17:15;100379.44;;;18.94;100.00
19736;BME280;32064;49.310;8.646;2022-10-16T04:19:40;100374.28;;;18.92;100.00
19736;BME280;32064;49.310;8.646;2022-10-16T04:22:06;100384.75;;;18.94;100.00
19736;BME280;32064;49.310;8.646;2022-10-16T04:24:31;100387.28;;;18.95;100.00
19736;BME280;32064;49.310;8.646;2022-10-16T04:26:57;100387.13;;;18.97;100.00
19736;BME280;32064;49.310;8.646;2022-10-16T04:29:22;100381.28;;;18.93;100.00
19736;BME280;32064;49.310;8.646;2022-10-16T04:31:47;100398.09;;;18.94;100.00
19736;BME280;32064;49.310;8.646;2022-10-16T04:34:13;100404.44;;;18.93;100.00
19736;BME280;32064;49.310;8.646;2022-10-16T04:36:38;100404.75;;;18.90;100.00
19736;BME280;32064;49.310;8.646;2022-10-16T04:39:04;100404.94;;;18.88;100.00
19736;BME280;32064;49.310;8.646;2022-10-16T04:41:29;100401.28;;;18.89;100.00
19736;BME280;32064;49.310;8.646;2022-10-16T04:43:54;100398.75;;;18.88;100.00
19736;BME280;32064;49.310;8.646;2022-10-16T04:46:20;100395.94;;;18.89;100.00
19736;BME280;32064;49.310;8.646;2022-10-16T04:48:45;100381.44;;;18.83;100.00
19736;BME280;32064;49.310;8.646;2022-10-16T04:51:12;100389.56;;;18.82;100.00
19736;BME280;32064;49.310;8.646;2022-10-16T04:53:37;100406.09;;;18.86;100.00
19736;BME280;32064;49.310;8.646;2022-10-16T04:56:02;100396.59;;;18.83;100.00
19736;BME280;32064;49.310;8.646;2022-10-16T04:58:28;100396.06;;;18.79;100.00
19736;BME280;32064;49.310;8.646;2022-10-16T05:00:53;100407.25;;;18.83;100.00
19736;BME280;32064;49.310;8.646;2022-10-16T05:03:19;100397.38;;;18.75;100.00
19736;BME280;32064;49.310;8.646;2022-10-16T05:05:45;100398.22;;;18.76;100.00
19736;BME280;32064;49.310;8.646;2022-10-16T05:08:12;100397.53;;;18.74;100.00
19736;BME280;32064;49.310;8.646;2022-10-16T05:10:39;100374.16;;;18.68;100.00
19736;BME280;32064;49.310;8.646;2022-10-16T05:13:04;100385.81;;;18.67;100.00
19736;BME280;32064;49.310;8.646;2022-10-16T05:15:29;100395.66;;;18.66;100.00
19736;BME280;32064;49.310;8.646;2022-10-16T05:17:55;100411.00;;;18.72;100.00
19736;BME280;32064;49.310;8.646;2022-10-16T05:20:23;100409.16;;;18.73;100.00
19736;BME280;32064;49.310;8.646;2022-10-16T05:22:48;100410.72;;;18.75;100.00
19736;BME280;32064;49.310;8.646;2022-10-16T05:25:14;100412.56;;;18.75;100.00
19736;BME280;32064;49.310;8.646;2022-10-16T05:27:39;100415.03;;;18.76;100.00
19736;BME280;32064;49.310;8.646;2022-10-16T05:30:05;100399.91;;;18.77;100.00
19736;BME280;32064;49.310;8.646;2022-10-16T05:32:31;100409.06;;;18.74;100.00
19736;BME280;32064;49.310;8.646;2022-10-16T05:34:56;100398.97;;;18.68;100.00
19736;BME280;32064;49.310;8.646;2022-10-16T05:37:24;100411.84;;;18.73;100.00
19736;BME280;32064;49.310;8.646;2022-10-16T05:39:49;100400.31;;;18.64;100.00
19736;BME280;32064;49.310;8.646;2022-10-16T05:42:15;100414.31;;;18.66;100.00
19736;BME280;32064;49.310;8.646;2022-10-16T05:44:40;100416.44;;;18.62;100.00
19736;BME280;32064;49.310;8.646;2022-10-16T05:47:05;100422.31;;;18.66;100.00
19736;BME280;32064;49.310;8.646;2022-10-16T05:49:31;100426.63;;;18.67;100.00
19736;BME280;32064;49.310;8.646;2022-10-16T05:51:56;100426.81;;;18.66;100.00
19736;BME280;32064;49.310;8.646;2022-10-16T05:54:22;100434.13;;;18.63;100.00
19736;BME280;32064;49.310;8.646;2022-10-16T05:56:47;100425.44;;;18.61;100.00
19736;BME280;32064;49.310;8.646;2022-10-16T05:59:12;100426.97;;;18.64;100.00
19736;BME280;32064;49.310;8.646;2022-10-16T06:01:38;100430.31;;;18.66;100.00
19736;BME280;32064;49.310;8.646;2022-10-16T06:04:03;100433.75;;;18.58;100.00
19736;BME280;32064;49.310;8.646;2022-10-16T06:06:29;100437.94;;;18.61;100.00
19736;BME280;32064;49.310;8.646;2022-10-16T06:08:56;100438.31;;;18.66;100.00
19736;BME280;32064;49.310;8.646;2022-10-16T06:11:27;100445.75;;;18.62;100.00
19736;BME280;32064;49.310;8.646;2022-10-16T06:13:58;100435.97;;;18.63;100.00
19736;BME280;32064;49.310;8.646;2022-10-16T06:16:25;100444.28;;;18.68;100.00
19736;BME280;32064;49.310;8.646;2022-10-16T06:18:52;100437.81;;;18.71;100.00
19736;BME280;32064;49.310;8.646;2022-10-16T06:21:25;100445.16;;;18.69;100.00
19736;BME280;32064;49.310;8.646;2022-10-16T06:23:51;100451.81;;;18.73;100.00
19736;BME280;32064;49.310;8.646;2022-10-16T06:26:19;100448.78;;;18.68;100.00
19736;BME280;32064;49.310;8.646;2022-10-16T06:28:45;100447.31;;;18.73;100.00
19736;BME280;32064;49.310;8.646;2022-10-16T06:31:11;100441.16;;;18.73;100.00
19736;BME280;32064;49.310;8.646;2022-10-16T06:33:38;100432.03;;;18.75;100.00
19736;BME280;32064;49.310;8.646;2022-10-16T06:36:15;100428.66;;;18.73;100.00
19736;BME280;32064;49.310;8.646;2022-10-16T06:38:41;100432.53;;;18.79;100.00
19736;BME280;32064;49.310;8.646;2022-10-16T06:41:09;100436.38;;;18.76;100.00
19736;BME280;32064;49.310;8.646;2022-10-16T06:43:36;100447.72;;;18.78;100.00
19736;BME280;32064;49.310;8.646;2022-10-16T06:46:02;100440.88;;;18.76;100.00
19736;BME280;32064;49.310;8.646;2022-10-16T06:48:29;100444.03;;;18.79;100.00
19736;BME280;32064;49.310;8.646;2022-10-16T06:51:17;100455.03;;;18.76;100.00
19736;BME280;32064;49.310;8.646;2022-10-16T06:53:45;100461.03;;;18.78;100.00
19736;BME280;32064;49.310;8.646;2022-10-16T06:56:14;100454.22;;;18.84;100.00
19736;BME280;32064;49.310;8.646;2022-10-16T06:58:41;100453.22;;;18.85;100.00
19736;BME280;32064;49.310;8.646;2022-10-16T07:01:07;100463.28;;;18.91;100.00
19736;BME280;32064;49.310;8.646;2022-10-16T07:03:33;100470.63;;;18.97;100.00
19736;BME280;32064;49.310;8.646;2022-10-16T07:06:02;100477.16;;;19.03;100.00
19736;BME280;32064;49.310;8.646;2022-10-16T07:08:34;100480.47;;;19.05;100.00
19736;BME280;32064;49.310;8.646;2022-10-16T07:11:01;100484.31;;;19.11;100.00
19736;BME280;32064;49.310;8.646;2022-10-16T07:13:27;100483.72;;;19.17;100.00
19736;BME280;32064;49.310;8.646;2022-10-16T07:15:52;100498.72;;;19.18;100.00
19736;BME280;32064;49.310;8.646;2022-10-16T07:18:18;100502.06;;;19.20;100.00
19736;BME280;32064;49.310;8.646;2022-10-16T07:20:43;100511.56;;;19.22;100.00
19736;BME280;32064;49.310;8.646;2022-10-16T07:23:09;100518.25;;;19.26;100.00
19736;BME280;32064;49.310;8.646;2022-10-16T07:25:34;100517.13;;;19.37;100.00
19736;BME280;32064;49.310;8.646;2022-10-16T07:28:00;100527.50;;;19.48;100.00
19736;BME280;32064;49.310;8.646;2022-10-16T07:30:25;100530.34;;;19.55;100.00
19736;BME280;32064;49.310;8.646;2022-10-16T07:32:51;100523.69;;;19.59;100.00
19736;BME280;32064;49.310;8.646;2022-10-16T07:35:16;100525.56;;;19.67;100.00
19736;BME280;32064;49.310;8.646;2022-10-16T07:37:45;100528.44;;;19.73;100.00
19736;BME280;32064;49.310;8.646;2022-10-16T07:40:11;100532.28;;;19.79;100.00
19736;BME280;32064;49.310;8.646;2022-10-16T07:42:36;100544.28;;;19.83;100.00
19736;BME280;32064;49.310;8.646;2022-10-16T07:45:02;100542.31;;;19.93;100.00
19736;BME280;32064;49.310;8.646;2022-10-16T07:47:28;100549.50;;;20.17;100.00
19736;BME280;32064;49.310;8.646;2022-10-16T07:49:53;100547.00;;;20.40;98.40
19736;BME280;32064;49.310;8.646;2022-10-16T07:52:19;100550.34;;;20.51;98.45
19736;BME280;32064;49.310;8.646;2022-10-16T07:54:44;100560.22;;;20.67;98.23
19736;BME280;32064;49.310;8.646;2022-10-16T07:57:10;100555.19;;;20.63;98.20
19736;BME280;32064;49.310;8.646;2022-10-16T07:59:35;100563.72;;;20.75;97.06
19736;BME280;32064;49.310;8.646;2022-10-16T08:02:00;100567.13;;;21.08;95.83
19736;BME280;32064;49.310;8.646;2022-10-16T08:04:26;100570.22;;;20.89;96.80
19736;BME280;32064;49.310;8.646;2022-10-16T08:06:51;100573.72;;;20.81;96.77
19736;BME280;32064;49.310;8.646;2022-10-16T08:09:17;100582.94;;;20.71;97.25
19736;BME280;32064;49.310;8.646;2022-10-16T08:11:42;100578.25;;;20.73;96.68
19736;BME280;32064;49.310;8.646;2022-10-16T08:14:07;100576.06;;;20.76;96.69
19736;BME280;32064;49.310;8.646;2022-10-16T08:16:33;100579.06;;;20.81;96.68
19736;BME280;32064;49.310;8.646;2022-10-16T08:18:58;100575.56;;;20.73;95.62
19736;BME280;32064;49.310;8.646;2022-10-16T08:21:24;100567.22;;;20.68;96.22
19736;BME280;32064;49.310;8.646;2022-10-16T08:23:50;100566.06;;;20.70;96.88
19736;BME280;32064;49.310;8.646;2022-10-16T08:26:16;100568.41;;;20.65;96.29
19736;BME280;32064;49.310;8.646;2022-10-16T08:28:42;100579.41;;;20.46;96.14
19736;BME280;32064;49.310;8.646;2022-10-16T08:31:13;100571.56;;;20.44;95.65
19736;BME280;32064;49.310;8.646;2022-10-16T08:33:40;100583.09;;;20.45;96.26
19736;BME280;32064;49.310;8.646;2022-10-16T08:36:06;100577.56;;;20.46;95.88
19736;BME280;32064;49.310;8.646;2022-10-16T08:38:33;100581.09;;;20.47;95.95
19736;BME280;32064;49.310;8.646;2022-10-16T08:41:17;100591.09;;;20.45;95.39
19736;BME280;32064;49.310;8.646;2022-10-16T08:46:44;100592.81;;;20.54;96.30
19736;BME280;32064;49.310;8.646;2022-10-16T08:49:13;100593.28;;;20.57;96.67
19736;BME280;32064;49.310;8.646;2022-10-16T08:51:43;100609.00;;;20.60;95.21
19736;BME280;32064;49.310;8.646;2022-10-16T08:54:44;100611.84;;;20.59;95.35
19736;BME280;32064;49.310;8.646;2022-10-16T08:57:35;100621.53;;;20.68;93.87
19736;BME280;32064;49.310;8.646;2022-10-16T09:00:12;100625.03;;;20.69;94.60
19736;BME280;32064;49.310;8.646;2022-10-16T09:03:13;100630.72;;;20.90;94.78
19736;BME280;32064;49.310;8.646;2022-10-16T09:11:51;100647.88;;;21.76;91.45
19736;BME280;32064;49.310;8.646;2022-10-16T09:17:21;100650.81;;;21.97;88.13
19736;BME280;32064;49.310;8.646;2022-10-16T09:20:12;100656.59;;;22.09;88.46
19736;BME280;32064;49.310;8.646;2022-10-16T09:22:40;100676.09;;;22.34;87.93
19736;BME280;32064;49.310;8.646;2022-10-16T09:25:17;100673.22;;;22.36;88.90
19736;BME280;32064;49.310;8.646;2022-10-16T09:27:48;100678.66;;;22.51;88.76
19736;BME280;32064;49.310;8.646;2022-10-16T09:30:17;100677.38;;;22.84;88.00
19736;BME280;32064;49.310;8.646;2022-10-16T09:32:43;100677.69;;;23.72;84.65
19736;BME280;32064;49.310;8.646;2022-10-16T09:35:16;100677.91;;;23.70;83.50
19736;BME280;32064;49.310;8.646;2022-10-16T09:37:44;100693.63;;;23.59;85.74
19736;BME280;32064;49.310;8.646;2022-10-16T09:40:23;100687.31;;;23.66;83.86
19736;BME280;32064;49.310;8.646;2022-10-16T09:42:51;100691.41;;;24.43;80.58
19736;BME280;32064;49.310;8.646;2022-10-16T09:45:23;100691.50;;;24.20;82.58
19736;BME280;32064;49.310;8.646;2022-10-16T09:47:49;100678.59;;;23.94;82.95
19736;BME280;32064;49.310;8.646;2022-10-16T09:50:27;100682.69;;;23.60;83.96
19736;BME280;32064;49.310;8.646;2022-10-16T09:53:11;100681.19;;;23.43;81.75
19736;BME280;32064;49.310;8.646;2022-10-16T09:55:47;100687.69;;;23.34;81.61
19736;BME280;32064;49.310;8.646;2022-10-16T09:58:14;100677.97;;;23.33;80.16
19736;BME280;32064;49.310;8.646;2022-10-16T10:00:41;100686.56;;;23.43;80.83
19736;BME280;32064;49.310;8.646;2022-10-16T10:03:13;100684.16;;;23.48;80.47
19736;BME280;32064;49.310;8.646;2022-10-16T10:05:49;100693.69;;;23.65;78.68
19736;BME280;32064;49.310;8.646;2022-10-16T10:08:17;100691.94;;;24.02;79.15
19736;BME280;32064;49.310;8.646;2022-10-16T10:10:43;100696.91;;;24.78;75.88
19736;BME280;32064;49.310;8.646;2022-10-16T10:13:22;100697.81;;;25.13;74.95
19736;BME280;32064;49.310;8.646;2022-10-16T10:15:50;100705.03;;;25.34;72.85
19736;BME280;32064;49.310;8.646;2022-10-16T10:18:18;100699.78;;;25.95;71.00
19736;BME280;32064;49.310;8.646;2022-10-16T10:20:44;100700.25;;;26.67;69.58
19736;BME280;32064;49.310;8.646;2022-10-16T10:23:36;100698.44;;;28.31;64.51
19736;BME280;32064;49.310;8.646;2022-10-16T10:26:18;100688.63;;;28.36;62.05
19736;BME280;32064;49.310;8.646;2022-10-16T10:36:41;100682.41;;;29.61;58.88
19736;BME280;32064;49.310;8.646;2022-10-16T10:39:25;100689.09;;;29.77;57.22
19736;BME280;32064;49.310;8.646;2022-10-16T10:44:37;100684.94;;;30.41;56.13
19736;BME280;32064;49.310;8.646;2022-10-16T10:47:50;100675.03;;;30.89;53.36
19736;BME280;32064;49.310;8.646;2022-10-16T10:50:25;100671.38;;;31.83;52.87
19736;BME280;32064;49.310;8.646;2022-10-16T10:56:03;100672.19;;;33.03;50.55
19736;BME280;32064;49.310;8.646;2022-10-16T11:01:29;100670.22;;;34.03;47.55
19736;BME280;32064;49.310;8.646;2022-10-16T11:06:57;100669.91;;;34.22;44.35
19736;BME280;32064;49.310;8.646;2022-10-16T11:09:38;100670.97;;;34.80;46.16
19736;BME280;32064;49.310;8.646;2022-10-16T11:12:12;100673.19;;;35.20;43.88
19736;BME280;32064;49.310;8.646;2022-10-16T11:17:18;100672.97;;;36.00;41.51
19736;BME280;32064;49.310;8.646;2022-10-16T11:19:53;100676.50;;;35.80;40.19
19736;BME280;32064;49.310;8.646;2022-10-16T11:22:32;100685.63;;;36.01;40.47
19736;BME280;32064;49.310;8.646;2022-10-16T11:25:16;100674.97;;;36.10;40.37
19736;BME280;32064;49.310;8.646;2022-10-16T11:28:36;100670.94;;;35.60;41.07
19736;BME280;32064;49.310;8.646;2022-10-16T11:31:00;100671.19;;;35.05;41.26
19736;BME280;32064;49.310;8.646;2022-10-16T11:41:31;100644.91;;;32.52;44.80
19736;BME280;32064;49.310;8.646;2022-10-16T11:44:32;100642.94;;;31.50;46.35
19736;BME280;32064;49.310;8.646;2022-10-16T11:49:34;100652.47;;;30.47;49.26
19736;BME280;32064;49.310;8.646;2022-10-16T11:52:17;100660.78;;;30.03;50.04
19736;BME280;32064;49.310;8.646;2022-10-16T11:54:50;100652.72;;;29.66;50.53
19736;BME280;32064;49.310;8.646;2022-10-16T11:57:51;100654.19;;;29.25;51.81
19736;BME280;32064;49.310;8.646;2022-10-16T12:01:17;100651.34;;;28.95;52.83
19736;BME280;32064;49.310;8.646;2022-10-16T12:04:43;100650.69;;;28.75;53.43
19736;BME280;32064;49.310;8.646;2022-10-16T12:07:15;100652.47;;;28.62;53.95
19736;BME280;32064;49.310;8.646;2022-10-16T12:09:44;100648.44;;;28.40;53.62
19736;BME280;32064;49.310;8.646;2022-10-16T12:12:38;100648.69;;;28.00;55.48
19736;BME280;32064;49.310;8.646;2022-10-16T12:17:47;100655.41;;;27.84;55.77
19736;BME280;32064;49.310;8.646;2022-10-16T12:25:31;100639.50;;;27.43;54.95
19736;BME280;32064;49.310;8.646;2022-10-16T12:30:41;100624.38;;;27.35;55.94
19736;BME280;32064;49.310;8.646;2022-10-16T12:33:21;100628.13;;;27.07;55.78
19736;BME280;32064;49.310;8.646;2022-10-16T12:35:47;100632.91;;;27.25;55.50
19736;BME280;32064;49.310;8.646;2022-10-16T12:38:21;100625.81;;;27.38;56.33
19736;BME280;32064;49.310;8.646;2022-10-16T12:41:02;100634.88;;;27.63;55.61
19736;BME280;32064;49.310;8.646;2022-10-16T12:46:03;100631.31;;;29.40;51.59
19736;BME280;32064;49.310;8.646;2022-10-16T12:48:29;100634.97;;;29.08;53.26
19736;BME280;32064;49.310;8.646;2022-10-16T12:50:56;100630.38;;;28.84;53.58
19736;BME280;32064;49.310;8.646;2022-10-16T12:53:26;100625.66;;;28.23;52.09
19736;BME280;32064;49.310;8.646;2022-10-16T12:56:01;100624.28;;;28.07;53.33
19736;BME280;32064;49.310;8.646;2022-10-16T12:58:53;100620.78;;;27.54;54.30
19736;BME280;32064;49.310;8.646;2022-10-16T13:06:48;100635.22;;;27.02;56.53
19736;BME280;32064;49.310;8.646;2022-10-16T13:09:36;100632.28;;;26.83;56.17
19736;BME280;32064;49.310;8.646;2022-10-16T13:12:15;100641.03;;;26.72;58.14
19736;BME280;32064;49.310;8.646;2022-10-16T13:17:44;100651.59;;;26.47;58.77
19736;BME280;32064;49.310;8.646;2022-10-16T13:20:35;100657.38;;;26.37;57.90
19736;BME280;32064;49.310;8.646;2022-10-16T13:29:00;100664.06;;;25.87;58.14
19736;BME280;32064;49.310;8.646;2022-10-16T13:31:26;100669.44;;;25.80;59.07
19736;BME280;32064;49.310;8.646;2022-10-16T13:33:55;100664.59;;;25.62;58.94
19736;BME280;32064;49.310;8.646;2022-10-16T13:36:29;100666.16;;;25.50;59.85
19736;BME280;32064;49.310;8.646;2022-10-16T13:39:14;100652.38;;;25.31;60.15
19736;BME280;32064;49.310;8.646;2022-10-16T13:41:42;100657.53;;;25.26;61.19
19736;BME280;32064;49.310;8.646;2022-10-16T13:44:14;100646.25;;;25.16;61.24
19736;BME280;32064;49.310;8.646;2022-10-16T13:46:41;100645.78;;;25.06;61.11
19736;BME280;32064;49.310;8.646;2022-10-16T13:49:15;100653.94;;;24.91;60.51
19736;BME280;32064;49.310;8.646;2022-10-16T13:51:54;100647.09;;;24.89;61.17
19736;BME280;32064;49.310;8.646;2022-10-16T13:54:20;100651.84;;;24.86;62.73
19736;BME280;32064;49.310;8.646;2022-10-16T13:56:45;100653.63;;;24.79;64.71
19736;BME280;32064;49.310;8.646;2022-10-16T13:59:24;100650.44;;;24.69;66.02
19736;BME280;32064;49.310;8.646;2022-10-16T14:01:53;100649.81;;;24.67;64.46
19736;BME280;32064;49.310;8.646;2022-10-16T14:04:19;100649.75;;;24.60;64.38
19736;BME280;32064;49.310;8.646;2022-10-16T14:06:46;100641.38;;;24.49;63.94
19736;BME280;32064;49.310;8.646;2022-10-16T14:09:22;100636.19;;;24.47;65.47
19736;BME280;32064;49.310;8.646;2022-10-16T14:11:51;100626.44;;;24.46;65.07
19736;BME280;32064;49.310;8.646;2022-10-16T14:14:19;100626.53;;;24.38;65.48
19736;BME280;32064;49.310;8.646;2022-10-16T14:16:44;100627.22;;;24.25;65.74
19736;BME280;32064;49.310;8.646;2022-10-16T14:19:30;100637.34;;;24.23;67.29
19736;BME280;32064;49.310;8.646;2022-10-16T14:21:57;100639.19;;;24.23;66.60
19736;BME280;32064;49.310;8.646;2022-10-16T14:24:32;100643.69;;;24.15;67.49
19736;BME280;32064;49.310;8.646;2022-10-16T14:26:59;100656.69;;;24.12;67.31